createdAt,value
2023-04-18T00:01:27.803Z,11.30
2023-04-18T00:03:56.262Z,11.75
2023-04-18T00:06:26.246Z,11.43
2023-04-18T00:08:54.262Z,11.18
2023-04-18T00:11:22.431Z,11.20
2023-04-18T00:13:50.408Z,12.35
2023-04-18T00:16:18.788Z,11.13
2023-04-18T00:18:46.757Z,11.82
2023-04-18T00:21:15.077Z,11.38
2023-04-18T00:23:43.598Z,11.20
2023-04-18T00:26:12.300Z,11.05
2023-04-18T00:28:40.730Z,11.38
2023-04-18T00:31:09.235Z,11.90
2023-04-18T00:33:37.167Z,11.98
2023-04-18T00:36:05.981Z,11.43
2023-04-18T00:38:36.601Z,12.20
2023-04-18T00:41:04.891Z,10.88
2023-04-18T00:43:35.300Z,11.93
2023-04-18T00:46:03.761Z,11.90
2023-04-18T00:48:31.927Z,11.52
2023-04-18T00:51:00.926Z,11.60
2023-04-18T00:53:29.632Z,12.07
2023-04-18T00:55:58.374Z,12.50
2023-04-18T00:58:26.853Z,12.38
2023-04-18T01:00:55.171Z,12.88
2023-04-18T01:03:23.336Z,11.93
2023-04-18T01:05:52.028Z,12.70
2023-04-18T01:08:21.826Z,11.75
2023-04-18T01:10:50.214Z,12.35
2023-04-18T01:13:20.439Z,11.82
2023-04-18T01:15:51.077Z,11.98
2023-04-18T01:18:19.429Z,12.70
2023-04-18T01:20:50.207Z,13.68
2023-04-18T01:23:21.827Z,12.93
2023-04-18T01:25:51.269Z,12.85
2023-04-18T01:28:21.819Z,12.77
2023-04-18T01:30:50.247Z,12.82
2023-04-18T01:33:18.268Z,13.23
2023-04-18T01:35:50.286Z,13.80
2023-04-18T01:38:18.097Z,13.30
2023-04-18T01:40:46.639Z,13.07
2023-04-18T01:43:16.162Z,13.90
2023-04-18T01:45:44.272Z,13.73
2023-04-18T01:48:12.110Z,14.40
2023-04-18T01:50:43.424Z,14.35
2023-04-18T01:53:12.042Z,13.85
2023-04-18T01:55:40.347Z,13.93
2023-04-18T01:58:08.314Z,14.15
2023-04-18T02:00:37.886Z,13.98
2023-04-18T02:03:06.873Z,13.90
2023-04-18T02:05:37.783Z,14.60
2023-04-18T02:08:07.924Z,14.98
2023-04-18T02:10:36.154Z,15.40
2023-04-18T02:13:04.488Z,14.90
2023-04-18T02:15:33.425Z,14.15
2023-04-18T02:18:01.802Z,14.93
2023-04-18T02:20:34.152Z,14.38
2023-04-18T02:23:02.863Z,13.55
2023-04-18T02:25:31.693Z,14.18
2023-04-18T02:28:18.103Z,14.32
2023-04-18T02:30:46.292Z,13.02
2023-04-18T02:33:14.188Z,14.30
2023-04-18T02:35:42.510Z,14.57
2023-04-18T02:38:10.375Z,13.65
2023-04-18T02:40:38.875Z,14.02
2023-04-18T02:43:06.822Z,13.85
2023-04-18T02:45:35.040Z,12.13
2023-04-18T02:48:03.068Z,12.82
2023-04-18T02:50:32.542Z,12.73
2023-04-18T02:53:00.542Z,12.20
2023-04-18T02:55:39.284Z,11.52
2023-04-18T02:58:07.478Z,11.75
2023-04-18T03:01:02.037Z,11.77
2023-04-18T03:03:32.539Z,11.57
2023-04-18T03:06:21.090Z,10.55
2023-04-18T03:08:49.406Z,10.30
2023-04-18T03:11:18.256Z,9.88
2023-04-18T03:13:46.351Z,8.82
2023-04-18T03:16:16.857Z,10.13
2023-04-18T03:18:45.720Z,10.13
2023-04-18T03:21:15.097Z,9.73
2023-04-18T03:23:43.748Z,9.77
2023-04-18T03:26:14.084Z,9.23
2023-04-18T03:28:43.666Z,9.80
2023-04-18T03:31:12.646Z,9.23
2023-04-18T03:33:44.575Z,9.25
2023-04-18T03:36:15.884Z,8.80
2023-04-18T03:38:45.070Z,8.75
2023-04-18T03:41:13.282Z,8.90
2023-04-18T03:43:41.129Z,9.23
2023-04-18T03:46:09.460Z,9.50
2023-04-18T03:48:38.293Z,9.82
2023-04-18T03:51:10.806Z,9.27
2023-04-18T03:53:39.953Z,9.15
2023-04-18T03:56:08.239Z,9.45
2023-04-18T03:58:48.752Z,9.25
2023-04-18T04:01:17.562Z,8.93
2023-04-18T04:03:45.658Z,9.55
2023-04-18T04:06:14.284Z,8.70
2023-04-18T04:08:42.364Z,8.85
2023-04-18T04:11:10.762Z,9.23
2023-04-18T04:13:39.395Z,8.85
2023-04-18T04:16:08.650Z,8.80
2023-04-18T04:18:37.565Z,9.07
2023-04-18T04:21:07.072Z,9.27
2023-04-18T04:23:46.926Z,8.55
2023-04-18T04:26:27.939Z,9.75
2023-04-18T04:29:16.615Z,8.40
2023-04-18T04:31:47.425Z,8.23
2023-04-18T04:34:20.689Z,8.85
2023-04-18T04:36:49.373Z,8.20
2023-04-18T04:39:20.195Z,8.82
2023-04-18T04:42:12.526Z,8.23
2023-04-18T04:44:53.791Z,8.18
2023-04-18T04:47:23.226Z,7.95
2023-04-18T04:49:51.177Z,8.30
2023-04-18T04:52:19.333Z,7.43
2023-04-18T04:54:47.463Z,7.65
2023-04-18T04:57:19.032Z,8.38
2023-04-18T04:59:46.870Z,7.57
2023-04-18T05:02:15.449Z,7.72
2023-04-18T05:04:43.706Z,7.80
2023-04-18T05:07:12.123Z,8.20
2023-04-18T05:09:40.102Z,8.20
2023-04-18T05:12:08.616Z,7.93
2023-04-18T05:14:36.505Z,8.70
2023-04-18T05:17:05.032Z,8.35
2023-04-18T05:19:33.017Z,8.43
2023-04-18T05:22:01.511Z,8.82
2023-04-18T05:24:30.139Z,8.38
2023-04-18T05:26:58.574Z,8.13
2023-04-18T05:29:26.748Z,8.18
2023-04-18T05:31:56.642Z,7.35
2023-04-18T05:34:24.729Z,8.52
2023-04-18T05:36:52.963Z,8.38
2023-04-18T05:39:20.955Z,8.80
2023-04-18T05:41:49.273Z,8.68
2023-04-18T05:44:17.945Z,8.15
2023-04-18T05:46:47.127Z,9.20
2023-04-18T05:49:15.213Z,8.50
2023-04-18T05:51:43.331Z,8.13
2023-04-18T05:54:11.415Z,7.75
2023-04-18T05:56:41.540Z,9.10
2023-04-18T05:59:09.412Z,7.90
2023-04-18T06:01:37.687Z,8.23
2023-04-18T06:04:06.533Z,8.15
2023-04-18T06:06:36.018Z,8.45
2023-04-18T06:09:04.184Z,8.10
2023-04-18T06:11:35.968Z,8.50
2023-04-18T06:14:04.212Z,7.80
2023-04-18T06:16:32.492Z,7.63
2023-04-18T06:19:01.338Z,7.50
2023-04-18T06:21:29.854Z,8.18
2023-04-18T06:23:58.014Z,8.48
2023-04-18T06:26:26.431Z,8.45
2023-04-18T06:28:54.614Z,7.18
2023-04-18T06:31:23.114Z,7.50
2023-04-18T06:33:51.564Z,8.02
2023-04-18T06:36:20.240Z,8.25
2023-04-18T06:38:48.209Z,7.93
2023-04-18T06:41:16.481Z,9.57
2023-04-18T06:43:55.709Z,9.23
2023-04-18T06:46:30.766Z,7.53
2023-04-18T06:48:59.105Z,7.55
2023-04-18T06:51:27.738Z,7.38
2023-04-18T06:53:55.925Z,8.15
2023-04-18T06:56:24.184Z,7.60
2023-04-18T06:58:53.234Z,7.15
2023-04-18T07:01:21.594Z,7.80
2023-04-18T07:03:49.598Z,7.38
2023-04-18T07:06:19.018Z,7.57
2023-04-18T07:08:46.908Z,8.25
2023-04-18T07:11:15.938Z,8.50
2023-04-18T07:13:43.865Z,7.45
2023-04-18T07:16:12.035Z,7.38
2023-04-18T07:18:39.853Z,7.75
2023-04-18T07:21:08.281Z,7.45
2023-04-18T07:23:36.706Z,8.10
2023-04-18T07:26:06.011Z,8.30
2023-04-18T07:28:33.993Z,7.93
2023-04-18T07:31:03.959Z,8.35
2023-04-18T07:33:34.085Z,7.53
2023-04-18T07:36:03.352Z,7.65
2023-04-18T07:38:31.368Z,8.63
2023-04-18T07:41:01.605Z,7.88
2023-04-18T07:43:29.663Z,8.05
2023-04-18T07:45:58.303Z,8.30
2023-04-18T07:48:26.275Z,7.63
2023-04-18T07:50:54.667Z,7.82
2023-04-18T07:53:22.963Z,7.35
2023-04-18T07:55:51.436Z,7.72
2023-04-18T07:58:19.549Z,7.78
2023-04-18T08:00:47.756Z,7.30
2023-04-18T08:03:16.570Z,7.85
2023-04-18T08:05:45.042Z,8.00
2023-04-18T08:08:13.575Z,7.97
2023-04-18T08:10:41.728Z,7.65
2023-04-18T08:13:10.096Z,7.72
2023-04-18T08:15:38.347Z,7.75
2023-04-18T08:18:06.552Z,7.50
2023-04-18T08:20:37.445Z,7.38
2023-04-18T08:23:09.445Z,7.20
2023-04-18T08:25:40.038Z,7.05
2023-04-18T08:28:08.657Z,8.10
2023-04-18T08:30:37.151Z,7.25
2023-04-18T08:33:05.370Z,7.68
2023-04-18T08:35:35.540Z,7.85
2023-04-18T08:38:23.725Z,7.93
2023-04-18T08:41:10.886Z,7.93
2023-04-18T08:43:38.778Z,8.20
2023-04-18T08:46:08.157Z,8.43
2023-04-18T08:48:36.990Z,8.38
2023-04-18T08:51:05.657Z,9.07
2023-04-18T08:53:34.523Z,9.30
2023-04-18T08:56:03.167Z,8.43
2023-04-18T08:58:34.117Z,8.70
2023-04-18T09:01:02.653Z,8.15
2023-04-18T09:03:41.169Z,8.35
2023-04-18T09:06:14.633Z,7.63
2023-04-18T09:08:44.258Z,7.50
2023-04-18T09:11:32.648Z,8.20
2023-04-18T09:14:00.749Z,7.90
2023-04-18T09:16:47.094Z,8.35
2023-04-18T09:19:19.363Z,7.70
2023-04-18T09:21:58.203Z,7.75
2023-04-18T09:24:27.506Z,8.23
2023-04-18T09:26:58.929Z,7.22
2023-04-18T09:29:47.450Z,7.07
2023-04-18T09:32:27.333Z,6.55
2023-04-18T09:34:58.618Z,6.15
2023-04-18T09:37:31.048Z,6.07
2023-04-18T09:39:59.061Z,6.82
2023-04-18T09:42:36.480Z,5.95
2023-04-18T09:45:08.746Z,6.43
2023-04-18T09:47:39.185Z,6.40
2023-04-18T09:50:10.081Z,6.50
2023-04-18T09:52:41.146Z,6.85
2023-04-18T09:55:11.781Z,7.30
2023-04-18T09:57:42.811Z,6.40
2023-04-18T10:00:17.686Z,8.25
2023-04-18T10:02:58.248Z,9.30
2023-04-18T10:05:34.639Z,8.15
2023-04-18T10:08:04.080Z,6.20
2023-04-18T10:10:33.170Z,6.63
2023-04-18T10:13:03.458Z,6.63
2023-04-18T10:15:32.598Z,6.50
2023-04-18T10:18:05.860Z,7.00
2023-04-18T10:20:35.648Z,5.30
2023-04-18T10:23:43.389Z,5.40
2023-04-18T10:26:11.928Z,5.70
2023-04-18T10:28:54.878Z,6.00
2023-04-18T10:31:25.107Z,6.03
2023-04-18T10:34:04.587Z,5.88
2023-04-18T10:36:33.832Z,5.68
2023-04-18T10:39:21.814Z,5.60
2023-04-18T10:41:51.267Z,6.63
2023-04-18T10:44:23.064Z,5.95
2023-04-18T10:46:51.477Z,6.40
2023-04-18T10:49:26.417Z,6.03
2023-04-18T10:51:58.741Z,6.50
2023-04-18T10:54:28.692Z,6.60
2023-04-18T10:57:04.812Z,6.20
2023-04-18T10:59:34.966Z,6.88
2023-04-18T11:02:18.242Z,5.78
2023-04-18T11:04:51.822Z,6.28
2023-04-18T11:07:20.324Z,7.30
2023-04-18T11:09:55.520Z,6.82
2023-04-18T11:12:23.711Z,6.85
2023-04-18T11:14:53.028Z,7.00
2023-04-18T11:17:36.093Z,7.13
2023-04-18T11:20:09.421Z,6.70
2023-04-18T11:22:55.322Z,8.43
2023-04-18T11:25:45.109Z,7.55
2023-04-18T11:28:13.924Z,8.57
2023-04-18T11:30:42.230Z,7.60
2023-04-18T11:33:12.339Z,8.57
2023-04-18T11:35:42.548Z,8.00
2023-04-18T11:38:13.390Z,8.38
2023-04-18T11:40:51.324Z,8.30
2023-04-18T11:43:24.336Z,8.65
2023-04-18T11:46:00.292Z,8.73
2023-04-18T11:48:54.614Z,9.00
2023-04-18T11:51:38.917Z,7.85
2023-04-18T11:54:06.893Z,8.50
2023-04-18T11:56:36.667Z,8.10
2023-04-18T11:59:11.601Z,7.63
2023-04-18T12:01:39.898Z,7.20
2023-04-18T12:04:08.969Z,8.15
2023-04-18T12:06:55.682Z,7.70
2023-04-18T12:09:25.341Z,7.47
2023-04-18T12:12:04.600Z,7.03
2023-04-18T12:14:32.348Z,7.80
2023-04-18T12:17:03.827Z,7.85
2023-04-18T12:19:33.112Z,7.28
2023-04-18T12:22:03.430Z,7.90
2023-04-18T12:24:32.343Z,7.65
2023-04-18T12:27:00.842Z,7.93
2023-04-18T12:29:29.491Z,6.70
2023-04-18T12:31:57.663Z,9.15
2023-04-18T12:34:25.558Z,7.53
2023-04-18T12:36:54.255Z,7.18
2023-04-18T12:39:22.134Z,6.95
2023-04-18T12:41:50.258Z,7.20
2023-04-18T12:44:18.443Z,7.22
2023-04-18T12:46:46.662Z,7.28
2023-04-18T12:49:14.489Z,6.97
2023-04-18T12:51:43.912Z,6.65
2023-04-18T12:54:11.963Z,6.53
2023-04-18T12:56:40.251Z,6.63
2023-04-18T12:59:08.339Z,6.88
2023-04-18T13:01:36.596Z,7.30
2023-04-18T13:04:12.508Z,6.68
2023-04-18T13:06:41.791Z,7.13
2023-04-18T13:09:10.610Z,7.18
2023-04-18T13:11:38.945Z,7.03
2023-04-18T13:14:06.811Z,11.60
2023-04-18T13:16:35.076Z,10.10
2023-04-18T13:19:03.111Z,10.65
2023-04-18T13:21:33.315Z,8.27
2023-04-18T13:24:01.509Z,7.45
2023-04-18T13:26:29.757Z,7.85
2023-04-18T13:28:58.778Z,6.85
2023-04-18T13:31:27.772Z,7.13
2023-04-18T13:33:55.801Z,8.70
2023-04-18T13:36:27.349Z,7.35
2023-04-18T13:38:55.824Z,7.28
2023-04-18T13:41:24.498Z,10.15
2023-04-18T13:43:52.410Z,7.38
2023-04-18T13:46:20.758Z,8.02
2023-04-18T13:48:48.635Z,7.18
2023-04-18T13:51:17.230Z,7.18
2023-04-18T13:53:45.216Z,7.80
2023-04-18T13:56:13.357Z,6.70
2023-04-18T13:58:41.347Z,7.13
2023-04-18T14:01:09.846Z,7.57
2023-04-18T14:03:38.911Z,7.00
2023-04-18T14:06:08.361Z,6.80
2023-04-18T14:08:36.318Z,6.45
2023-04-18T14:11:04.455Z,7.20
2023-04-18T14:13:32.514Z,7.05
2023-04-18T14:16:01.334Z,6.45
2023-04-18T14:18:29.309Z,7.07
2023-04-18T14:20:57.481Z,7.25
2023-04-18T14:23:26.266Z,6.90
2023-04-18T14:25:54.610Z,6.75
2023-04-18T14:28:25.150Z,6.93
2023-04-18T14:30:58.046Z,9.38
2023-04-18T14:33:26.474Z,6.38
2023-04-18T14:35:54.682Z,7.07
2023-04-18T14:38:22.574Z,7.32
2023-04-18T14:40:50.797Z,7.13
2023-04-18T14:43:18.925Z,6.70
2023-04-18T14:45:47.390Z,6.50
2023-04-18T14:48:15.250Z,6.97
2023-04-18T14:50:44.033Z,6.93
2023-04-18T14:53:12.404Z,7.50
2023-04-18T14:55:40.998Z,6.57
2023-04-18T14:58:08.974Z,7.78
2023-04-18T15:00:37.513Z,7.90
2023-04-18T15:03:06.266Z,6.93
2023-04-18T15:05:39.038Z,7.30
2023-04-18T15:08:07.221Z,7.03
2023-04-18T15:10:36.149Z,7.70
2023-04-18T15:13:04.380Z,8.75
2023-04-18T15:15:35.911Z,7.68
2023-04-18T15:18:04.809Z,7.18
2023-04-18T15:20:34.629Z,7.68
2023-04-18T15:23:03.156Z,7.13
2023-04-18T15:25:31.613Z,6.68
2023-04-18T15:27:59.902Z,7.70
2023-04-18T15:30:28.342Z,7.30
2023-04-18T15:32:56.388Z,7.63
2023-04-18T15:35:24.677Z,7.72
2023-04-18T15:37:54.269Z,7.45
2023-04-18T15:40:22.674Z,7.97
2023-04-18T15:42:51.272Z,8.13
2023-04-18T15:45:19.570Z,9.40
2023-04-18T15:47:47.783Z,7.60
2023-04-18T15:50:16.626Z,8.93
2023-04-18T15:52:44.659Z,7.72
2023-04-18T15:55:13.720Z,8.02
2023-04-18T15:57:42.070Z,7.65
2023-04-18T16:00:21.166Z,8.15
2023-04-18T16:02:49.695Z,8.63
2023-04-18T16:05:17.987Z,7.70
2023-04-18T16:07:46.408Z,9.80
2023-04-18T16:10:15.520Z,8.50
2023-04-18T16:12:43.637Z,7.95
2023-04-18T16:15:12.424Z,7.97
2023-04-18T16:17:40.401Z,8.40
2023-04-18T16:20:09.369Z,8.30
2023-04-18T16:22:37.837Z,8.52
2023-04-18T16:25:06.469Z,8.90
2023-04-18T16:27:34.479Z,7.97
2023-04-18T16:30:03.859Z,8.48
2023-04-18T16:32:34.862Z,7.95
2023-04-18T16:35:06.599Z,7.47
2023-04-18T16:37:34.681Z,8.00
2023-04-18T16:40:05.994Z,7.75
2023-04-18T16:42:34.434Z,7.45
2023-04-18T16:45:03.625Z,7.63
2023-04-18T16:47:36.991Z,7.35
2023-04-18T16:50:06.216Z,7.70
2023-04-18T16:52:34.658Z,8.73
2023-04-18T16:55:02.927Z,8.20
2023-04-18T16:57:31.309Z,9.00
2023-04-18T17:00:02.430Z,7.95
2023-04-18T17:02:35.411Z,7.95
2023-04-18T17:05:03.944Z,7.75
2023-04-18T17:07:31.869Z,8.45
2023-04-18T17:10:00.140Z,8.50
2023-04-18T17:12:28.109Z,7.63
2023-04-18T17:14:56.416Z,7.03
2023-04-18T17:17:24.291Z,7.22
2023-04-18T17:19:52.524Z,7.80
2023-04-18T17:22:20.761Z,7.43
2023-04-18T17:24:49.398Z,7.03
2023-04-18T17:27:18.190Z,7.85
2023-04-18T17:29:46.605Z,9.70
2023-04-18T17:32:14.902Z,10.20
2023-04-18T17:34:43.377Z,9.25
2023-04-18T17:37:11.851Z,10.20
2023-04-18T17:39:40.889Z,7.20
2023-04-18T17:42:09.746Z,6.38
2023-04-18T17:44:39.966Z,7.18
2023-04-18T17:47:08.294Z,7.20
2023-04-18T17:49:36.635Z,7.43
2023-04-18T17:52:05.223Z,7.53
2023-04-18T17:54:33.582Z,6.97
2023-04-18T17:57:02.723Z,7.47
2023-04-18T17:59:30.987Z,6.80
2023-04-18T18:01:59.889Z,7.10
2023-04-18T18:04:28.309Z,7.82
2023-04-18T18:06:56.991Z,6.60
2023-04-18T18:09:25.272Z,6.80
2023-04-18T18:11:55.375Z,6.90
2023-04-18T18:14:24.528Z,6.85
2023-04-18T18:16:52.637Z,6.50
2023-04-18T18:19:21.786Z,6.20
2023-04-18T18:21:49.596Z,6.78
2023-04-18T18:24:18.991Z,6.22
2023-04-18T18:26:46.915Z,6.82
2023-04-18T18:29:15.381Z,6.20
2023-04-18T18:31:43.451Z,11.13
2023-04-18T18:34:12.271Z,25.55
2023-04-18T18:36:40.496Z,29.30
2023-04-18T18:39:08.851Z,13.52
2023-04-18T18:41:36.840Z,7.97
2023-04-18T18:44:05.343Z,9.15
2023-04-18T18:46:33.398Z,9.25
2023-04-18T18:49:01.754Z,8.68
2023-04-18T18:51:29.737Z,9.98
2023-04-18T18:53:58.256Z,8.82
2023-04-18T18:56:26.511Z,8.40
2023-04-18T18:58:57.886Z,8.65
2023-04-18T19:01:25.975Z,9.27
2023-04-18T19:03:54.564Z,9.15
2023-04-18T19:06:22.437Z,9.93
2023-04-18T19:08:50.698Z,9.85
2023-04-18T19:11:19.519Z,9.50
2023-04-18T19:13:47.759Z,9.73
2023-04-18T19:16:15.732Z,10.13
2023-04-18T19:18:47.269Z,9.95
2023-04-18T19:21:16.263Z,10.30
2023-04-18T19:23:44.516Z,10.30
2023-04-18T19:26:12.570Z,10.95
2023-04-18T19:28:41.686Z,11.02
2023-04-18T19:31:09.857Z,10.18
2023-04-18T19:33:38.493Z,11.00
2023-04-18T19:36:06.715Z,9.98
2023-04-18T19:38:35.395Z,9.40
2023-04-18T19:41:03.569Z,9.25
2023-04-18T19:43:31.871Z,9.98
2023-04-18T19:46:00.170Z,9.57
2023-04-18T19:48:28.395Z,10.95
2023-04-18T19:50:57.670Z,10.20
2023-04-18T19:53:26.149Z,9.98
2023-04-18T19:55:55.266Z,10.05
2023-04-18T19:58:45.364Z,10.32
2023-04-18T20:01:15.035Z,9.32
2023-04-18T20:03:45.928Z,10.02
2023-04-18T20:06:14.186Z,9.90
2023-04-18T20:08:42.526Z,9.82
2023-04-18T20:11:11.847Z,9.73
2023-04-18T20:13:40.584Z,11.43
2023-04-18T20:16:09.530Z,11.05
2023-04-18T20:18:39.592Z,10.82
2023-04-18T20:21:09.502Z,10.82
2023-04-18T20:23:38.378Z,10.68
2023-04-18T20:26:07.139Z,10.13
2023-04-18T20:28:36.531Z,11.68
2023-04-18T20:31:04.989Z,10.68
2023-04-18T20:33:33.642Z,9.95
2023-04-18T20:36:01.497Z,9.80
2023-04-18T20:38:29.961Z,10.82
2023-04-18T20:41:01.040Z,8.88
2023-04-18T20:43:29.622Z,10.13
2023-04-18T20:45:58.162Z,9.75
2023-04-18T20:48:26.571Z,9.65
2023-04-18T20:50:54.405Z,9.55
2023-04-18T20:53:25.427Z,9.98
2023-04-18T20:55:53.508Z,8.50
2023-04-18T20:58:21.788Z,8.60
2023-04-18T21:00:49.847Z,9.70
2023-04-18T21:03:18.369Z,9.18
2023-04-18T21:05:46.417Z,8.73
2023-04-18T21:08:14.655Z,9.13
2023-04-18T21:10:42.519Z,8.60
2023-04-18T21:13:12.769Z,9.45
2023-04-18T21:15:42.914Z,10.07
2023-04-18T21:18:11.503Z,9.90
2023-04-18T21:20:39.452Z,10.82
2023-04-18T21:23:07.765Z,11.05
2023-04-18T21:25:35.571Z,11.32
2023-04-18T21:28:04.017Z,11.70
2023-04-18T21:30:31.881Z,11.77
2023-04-18T21:33:00.305Z,11.57
2023-04-18T21:35:30.089Z,11.75
2023-04-18T21:37:58.842Z,10.93
2023-04-18T21:40:27.258Z,11.35
2023-04-18T21:42:55.789Z,11.75
2023-04-18T21:45:23.840Z,11.20
2023-04-18T21:47:53.850Z,11.40
2023-04-18T21:50:22.915Z,11.27
2023-04-18T21:52:51.650Z,10.75
2023-04-18T21:55:19.650Z,10.77
2023-04-18T21:57:48.864Z,10.77
2023-04-18T22:00:17.280Z,10.48
2023-04-18T22:02:45.816Z,10.45
2023-04-18T22:05:14.349Z,9.95
2023-04-18T22:07:56.951Z,10.60
2023-04-18T22:10:25.848Z,10.75
2023-04-18T22:12:56.264Z,10.32
2023-04-18T22:15:24.813Z,10.68
2023-04-18T22:17:54.565Z,10.20
2023-04-18T22:20:25.919Z,10.32
2023-04-18T22:22:55.659Z,10.32
2023-04-18T22:25:23.718Z,10.63
2023-04-18T22:27:51.927Z,9.88
2023-04-18T22:30:23.079Z,9.50
2023-04-18T22:32:52.145Z,9.52
2023-04-18T22:35:20.244Z,9.25
2023-04-18T22:37:48.453Z,8.98
2023-04-18T22:40:16.870Z,10.02
2023-04-18T22:42:45.445Z,9.95
2023-04-18T22:45:13.796Z,10.00
2023-04-18T22:47:44.222Z,10.05
2023-04-18T22:50:12.306Z,10.18
2023-04-18T22:52:41.451Z,9.43
2023-04-18T22:55:09.985Z,10.00
2023-04-18T22:57:38.886Z,9.55
2023-04-18T23:00:07.427Z,9.68
2023-04-18T23:02:36.217Z,9.93
2023-04-18T23:05:06.196Z,10.70
2023-04-18T23:07:37.345Z,10.60
2023-04-18T23:10:07.028Z,10.52
2023-04-18T23:12:35.299Z,10.82
2023-04-18T23:15:04.600Z,9.82
2023-04-18T23:17:37.987Z,9.43
2023-04-18T23:20:10.243Z,10.30
2023-04-18T23:22:39.270Z,9.85
2023-04-18T23:25:07.364Z,10.20
2023-04-18T23:27:35.628Z,9.80
2023-04-18T23:30:03.515Z,9.80
2023-04-18T23:32:33.958Z,9.77
2023-04-18T23:35:04.477Z,9.93
2023-04-18T23:37:34.616Z,10.52
2023-04-18T23:40:05.250Z,9.93
2023-04-18T23:42:37.238Z,10.10
2023-04-18T23:45:06.248Z,9.45
2023-04-18T23:47:35.698Z,10.40
2023-04-18T23:50:03.729Z,10.52
2023-04-18T23:52:34.406Z,10.40
2023-04-18T23:55:02.649Z,10.95
2023-04-18T23:57:34.620Z,10.63
